Αναφορές Αεροδρομίων

 

LGTS - Thessaloniki/Mik, Greece
Distance from station: ΝΔ 15km
Ενημερώθηκε: 16/06/2024 06:20
Clear
Clear
 Ανεμος από ΑΝΑ
Ανεμος: ΑΝΑ 11 km/h
Θερμοκρασία: 18°C
Σημείο Δρόσου: 14°C
Υγρασία: 78%
Βαρόμετρο: 1011 hPa
Περίληψη: Clear
Visibility: greater than 10 km
2024/06/16 03:20 LGTS 160320Z 11006KT CAVOK 18/14 Q1011 NOSIG
LGKZ - Kozani (civ/Army, Greece
Distance from station: ΔΝΔ 113km
Ενημερώθηκε: 16/06/2024 05:50
Clear
Clear
 Ανεμος από Β
Ανεμος: Β 9 km/h
Θερμοκρασία: 16°C
Σημείο Δρόσου: 11°C
Υγρασία: 72%
Βαρόμετρο: 1014 hPa
Περίληψη: Clear
Visibility: greater than 10 km
2024/06/16 02:50 LGKZ 160250Z 35005KT CAVOK 16/11 Q1014
 
LGKV - Kavala/Chrisoupo, Greece
Distance from station: ΑΒΑ 132km
Ενημερώθηκε: 16/06/2024 06:20
Clear
Clear
 Ανεμος από ΒΒΑ
Ανεμος: ΒΒΑ 6 km/h
Θερμοκρασία: 17°C
Σημείο Δρόσου: 15°C
Υγρασία: 88%
Βαρόμετρο: 1011 hPa
Περίληψη: Clear
Visibility: greater than 10 km
2024/06/16 03:20 LGKV 160320Z 02003KT CAVOK 17/15 Q1011
LGBL - Nea Anchialos, Greece
Distance from station: Ν 156km
Ενημερώθηκε: 16/06/2024 06:20
Clear
Clear
 Ανεμος από ΔΝΔ
Ανεμος: ΔΝΔ 7 km/h
Θερμοκρασία: 19°C
Σημείο Δρόσου: 15°C
Υγρασία: 78%
Βαρόμετρο: 1011 hPa
Περίληψη: Clear
Visibility: greater than 10 km
2024/06/16 03:20 LGBL 160320Z 24004KT CAVOK 19/15 Q1011
 
LGSK - Skiathos Island, Greece
Distance from station: ΝΝΑ 161km
Ενημερώθηκε: 15/06/2024 21:20
NOT Current
Clear
Clear
 Ανεμος από varies
Ανεμος: varies 6 km/h
Θερμοκρασία: 25°C
Σημείο Δρόσου: 15°C
Υγρασία: 54%
Βαρόμετρο: 1010 hPa
Περίληψη: Clear
Visibility: greater than 10 km
2024/06/15 18:20 LGSK 151820Z VRB03KT CAVOK 25/15 Q1010
LWSK - Skopje/Petrovac, Macedonia
Distance from station: ΒΔ 195km
Ενημερώθηκε: 16/06/2024 06:50
Clear
Clear
 Ανεμος από varies
Ανεμος: varies 2 km/h
Θερμοκρασία: 16°C
Σημείο Δρόσου: 13°C
Υγρασία: 83%
Βαρόμετρο: 1013 hPa
Περίληψη: Clear
Visibility: greater than 10 km
2024/06/16 03:50 LWSK 160350Z VRB01KT CAVOK 16/13 Q1013 NOSIG
 
LGLM - Limnos Island Ar, Greece
Distance from station: ΑΝΑ 196km
Ενημερώθηκε: 16/06/2024 06:20
Clear
Clear
 Ανεμος από calm
Ανεμος: Απνοια
Θερμοκρασία: 20°C
Σημείο Δρόσου: 18°C
Υγρασία: 88%
Βαρόμετρο: 1010 hPa
Περίληψη: Clear
Visibility: greater than 10 km
2024/06/16 03:20 LGLM 160320Z 00000KT CAVOK 20/18 Q1010
LWOH - Ohrid, Macedonia
Distance from station: ΔΒΔ 202km
Ενημερώθηκε: 16/06/2024 06:50
Few Clouds
Few Clouds
 Ανεμος από ΒΒΔ
Ανεμος: ΒΒΔ 6 km/h
Θερμοκρασία: 10°C
Σημείο Δρόσου: 10°C
Υγρασία: 100%
Βαρόμετρο: 1015 hPa
Clouds: Few Clouds
Visibility: 10 km
Cloud details: Few Clouds 1372 m
2024/06/16 03:50 LWOH 160350Z 33003KT 9999 FEW045 10/10 Q1015
 
LGSY - Skiros, Greece
Distance from station: ΝΑ 217km
Ενημερώθηκε: 16/06/2024 05:50
Clear
Clear
 Ανεμος από calm
Ανεμος: Απνοια
Θερμοκρασία: 18°C
Σημείο Δρόσου: 14°C
Υγρασία: 78%
Βαρόμετρο: 1009 hPa
Περίληψη: Clear
Visibility: greater than 10 km
2024/06/16 02:50 LGSY 160250Z 00000KT CAVOK 18/14 Q1009 BLU
LGIO - Ioannina, Greece
Distance from station: ΔΝΔ 218km
Ενημερώθηκε: 16/06/2024 06:20

 Ανεμος από varies
Ανεμος: varies 4 km/h
Θερμοκρασία: 12°C
Σημείο Δρόσου: 11°C
Υγρασία: 94%
Βαρόμετρο: 1014 hPa
2024/06/16 03:20 LGIO 160320Z AUTO VRB02KT //// // ////// 12/11 Q1014 RE//
 
LBPD - Plovdiv, Bulgaria
Distance from station: ΒΑ 222km
Ενημερώθηκε: 16/06/2024 06:30
Clear
Clear
 Ανεμος από ΝΔ
Ανεμος: ΝΔ 4 km/h
Θερμοκρασία: 14°C
Σημείο Δρόσου: 10°C
Υγρασία: 77%
Βαρόμετρο: 1013 hPa
Clouds: Clear
Visibility: 10 km
2024/06/16 03:30 LBPD 160330Z AUTO 23002KT 9999 NCD 14/10 Q1013 NOSIG
LBSF - Sofia (observato, Bulgaria
Distance from station: Β 229km
Ενημερώθηκε: 16/06/2024 06:30
Clear
Clear
 Ανεμος από Β
Ανεμος: Β 6 km/h
Θερμοκρασία: 12°C
Σημείο Δρόσου: 9°C
Υγρασία: 82%
Βαρόμετρο: 1014 hPa
Περίληψη: Clear
Visibility: greater than 10 km
2024/06/16 03:30 LBSF 160330Z 35003KT CAVOK 12/09 Q1014 NOSIG
 
LGAL - Alexandroupolis, Greece
Distance from station: Α 242km
Ενημερώθηκε: 16/06/2024 06:20
Clear
Clear
 Ανεμος από calm
Ανεμος: Απνοια
Θερμοκρασία: 17°C
Σημείο Δρόσου: 14°C
Υγρασία: 83%
Βαρόμετρο: 1010 hPa
Περίληψη: Clear
Visibility: greater than 10 km
2024/06/16 03:20 LGAL 160320Z 00000KT CAVOK 17/14 Q1010
LGPZ - Preveza/Aktion, Greece
Distance from station: ΝΔ 274km
Ενημερώθηκε: 16/06/2024 06:20
Partly Cloudy
Partly Cloudy
 Ανεμος από ΒΑ
Ανεμος: ΒΑ 7 km/h
Θερμοκρασία: 19°C
Σημείο Δρόσου: 19°C
Υγρασία: 100%
Βαρόμετρο: 1012 hPa
Clouds: Partly Cloudy
Visibility: 10 km
Cloud details: Partly Cloudy 457 m
2024/06/16 03:20 LGPZ 160320Z 04004KT 9999 SCT015 19/19 Q1012
 
BKPR - Prishtina, Yugoslavia
Distance from station: ΒΔ 280km
Ενημερώθηκε: 16/06/2024 06:30
Clear
Clear
 Ανεμος από varies
Ανεμος: varies 4 km/h
Θερμοκρασία: 14°C
Σημείο Δρόσου: 12°C
Υγρασία: 88%
Βαρόμετρο: 1014 hPa
Περίληψη: Clear
Visibility: greater than 10 km
2024/06/16 03:30 BKPR 160330Z VRB02KT CAVOK 14/12 Q1014 NOSIG
LGEL - Elefsis (hel-Afb, Greece
Distance from station: Ν 284km
Ενημερώθηκε: 16/06/2024 06:20
Clear
Clear
 Ανεμος από calm
Ανεμος: Απνοια
Θερμοκρασία: 22°C
Σημείο Δρόσου: 14°C
Υγρασία: 61%
Βαρόμετρο: 1010 hPa
Περίληψη: Clear
Visibility: greater than 10 km
2024/06/16 03:20 LGEL 160320Z 00000KT CAVOK 22/14 Q1010
 
LATI - Tirana, Albania
Distance from station: ΔΒΔ 291km
Ενημερώθηκε: 16/06/2024 06:50
Clear
Clear
 Ανεμος από Ν
Ανεμος: Ν 9 km/h
Θερμοκρασία: 16°C
Σημείο Δρόσου: 16°C
Υγρασία: 100%
Βαρόμετρο: 1013 hPa
Περίληψη: Clear
Visibility: greater than 10 km
2024/06/16 03:50 LATI 160350Z 17005KT CAVOK 16/16 Q1013 NOSIG
LGKR - Ioannis Kapodist, Greece
Distance from station: ΔΝΔ 292km
Ενημερώθηκε: 16/06/2024 06:20
Clear
Clear
 Ανεμος από calm
Ανεμος: Απνοια
Θερμοκρασία: 19°C
Σημείο Δρόσου: 18°C
Υγρασία: 94%
Βαρόμετρο: 1011 hPa
Περίληψη: Clear
Visibility: greater than 10 km
2024/06/16 03:20 LGKR 160320Z 00000KT CAVOK 19/18 Q1011 NOSIG